sensor_id;sensor_type;location;lat;lon;timestamp;pressure;altitude;pressure_sealevel;temperature;humidity
64908;BME280;51412;52.236;5.188;2022-07-05T00:01:03;102116.22;;;16.52;69.64
64908;BME280;51412;52.236;5.188;2022-07-05T00:03:30;102105.47;;;16.48;69.72
64908;BME280;51412;52.236;5.188;2022-07-05T00:05:57;102103.13;;;16.43;69.40
64908;BME280;51412;52.236;5.188;2022-07-05T00:08:24;102098.16;;;16.41;69.80
64908;BME280;51412;52.236;5.188;2022-07-05T00:10:51;102102.34;;;16.39;69.89
64908;BME280;51412;52.236;5.188;2022-07-05T00:13:17;102094.28;;;16.39;69.94
64908;BME280;51412;52.236;5.188;2022-07-05T00:15:44;102103.09;;;16.39;69.85
64908;BME280;51412;52.236;5.188;2022-07-05T00:18:12;102102.34;;;16.39;70.09
64908;BME280;51412;52.236;5.188;2022-07-05T00:20:38;102100.03;;;16.41;69.98
64908;BME280;51412;52.236;5.188;2022-07-05T00:23:05;102102.69;;;16.37;69.98
64908;BME280;51412;52.236;5.188;2022-07-05T00:25:31;102106.50;;;16.32;70.29
64908;BME280;51412;52.236;5.188;2022-07-05T00:27:58;102108.75;;;16.27;70.06
64908;BME280;51412;52.236;5.188;2022-07-05T00:30:24;102101.09;;;16.29;70.22
64908;BME280;51412;52.236;5.188;2022-07-05T00:32:51;102099.97;;;16.30;70.50
64908;BME280;51412;52.236;5.188;2022-07-05T00:35:19;102103.00;;;16.28;70.48
64908;BME280;51412;52.236;5.188;2022-07-05T00:37:45;102104.94;;;16.28;70.70
64908;BME280;51412;52.236;5.188;2022-07-05T00:40:13;102091.53;;;16.28;70.65
64908;BME280;51412;52.236;5.188;2022-07-05T00:42:39;102096.91;;;16.28;70.86
64908;BME280;51412;52.236;5.188;2022-07-05T00:45:08;102097.66;;;16.28;70.84
64908;BME280;51412;52.236;5.188;2022-07-05T00:47:34;102088.47;;;16.29;70.83
64908;BME280;51412;52.236;5.188;2022-07-05T00:50:01;102090.38;;;16.29;70.87
64908;BME280;51412;52.236;5.188;2022-07-05T00:52:29;102089.97;;;16.27;71.01
64908;BME280;51412;52.236;5.188;2022-07-05T00:54:56;102099.16;;;16.26;71.21
64908;BME280;51412;52.236;5.188;2022-07-05T00:57:23;102096.47;;;16.26;71.23
64908;BME280;51412;52.236;5.188;2022-07-05T00:59:49;102109.13;;;16.25;71.00
64908;BME280;51412;52.236;5.188;2022-07-05T01:02:16;102101.47;;;16.27;71.08
64908;BME280;51412;52.236;5.188;2022-07-05T01:04:46;102103.81;;;16.32;71.18
64908;BME280;51412;52.236;5.188;2022-07-05T01:07:13;102098.50;;;16.36;71.28
64908;BME280;51412;52.236;5.188;2022-07-05T01:09:41;102108.44;;;16.36;70.99
64908;BME280;51412;52.236;5.188;2022-07-05T01:12:08;102108.47;;;16.39;71.25
64908;BME280;51412;52.236;5.188;2022-07-05T01:14:35;102105.41;;;16.41;71.43
64908;BME280;51412;52.236;5.188;2022-07-05T01:17:02;102096.25;;;16.45;71.47
64908;BME280;51412;52.236;5.188;2022-07-05T01:19:29;102099.72;;;16.46;71.46
64908;BME280;51412;52.236;5.188;2022-07-05T01:21:57;102102.38;;;16.46;71.63
64908;BME280;51412;52.236;5.188;2022-07-05T01:24:26;102094.72;;;16.44;71.41
64908;BME280;51412;52.236;5.188;2022-07-05T01:26:52;102105.44;;;16.44;71.45
64908;BME280;51412;52.236;5.188;2022-07-05T01:29:19;102100.47;;;16.43;71.29
64908;BME280;51412;52.236;5.188;2022-07-05T01:31:46;102096.22;;;16.42;71.22
64908;BME280;51412;52.236;5.188;2022-07-05T01:34:12;102095.47;;;16.41;71.24
64908;BME280;51412;52.236;5.188;2022-07-05T01:36:39;102094.69;;;16.41;71.53
64908;BME280;51412;52.236;5.188;2022-07-05T01:39:07;102096.97;;;16.39;71.25
64908;BME280;51412;52.236;5.188;2022-07-05T01:41:35;102098.06;;;16.34;71.06
64908;BME280;51412;52.236;5.188;2022-07-05T01:44:02;102106.13;;;16.30;71.29
64908;BME280;51412;52.236;5.188;2022-07-05T01:46:30;102102.25;;;16.28;71.30
64908;BME280;51412;52.236;5.188;2022-07-05T01:49:00;102096.84;;;16.24;71.58
64908;BME280;51412;52.236;5.188;2022-07-05T01:51:33;102095.69;;;16.22;71.77
64908;BME280;51412;52.236;5.188;2022-07-05T01:54:00;102119.06;;;16.21;71.89
64908;BME280;51412;52.236;5.188;2022-07-05T01:56:27;102112.16;;;16.20;72.02
64908;BME280;51412;52.236;5.188;2022-07-05T01:58:55;102103.72;;;16.22;72.20
64908;BME280;51412;52.236;5.188;2022-07-05T02:01:36;102103.69;;;16.18;72.49
64908;BME280;51412;52.236;5.188;2022-07-05T02:04:04;102109.06;;;16.18;72.19
64908;BME280;51412;52.236;5.188;2022-07-05T02:06:31;102105.97;;;16.16;72.25
64908;BME280;51412;52.236;5.188;2022-07-05T02:08:58;102104.81;;;16.13;72.08
64908;BME280;51412;52.236;5.188;2022-07-05T02:11:25;102102.88;;;16.10;72.30
64908;BME280;51412;52.236;5.188;2022-07-05T02:13:51;102096.34;;;16.08;72.40
64908;BME280;51412;52.236;5.188;2022-07-05T02:16:21;102101.28;;;16.06;72.81
64908;BME280;51412;52.236;5.188;2022-07-05T02:18:48;102097.84;;;16.05;72.79
64908;BME280;51412;52.236;5.188;2022-07-05T02:21:14;102097.44;;;16.03;72.90
64908;BME280;51412;52.236;5.188;2022-07-05T02:23:41;102095.13;;;16.02;73.11
64908;BME280;51412;52.236;5.188;2022-07-05T02:26:07;102102.78;;;15.99;73.04
64908;BME280;51412;52.236;5.188;2022-07-05T02:28:34;102097.78;;;15.98;73.08
64908;BME280;51412;52.236;5.188;2022-07-05T02:31:00;102097.75;;;15.94;73.20
64908;BME280;51412;52.236;5.188;2022-07-05T02:33:28;102095.81;;;15.91;73.08
64908;BME280;51412;52.236;5.188;2022-07-05T02:35:55;102090.41;;;15.88;73.07
64908;BME280;51412;52.236;5.188;2022-07-05T02:38:21;102092.66;;;15.86;73.21
64908;BME280;51412;52.236;5.188;2022-07-05T02:40:48;102094.94;;;15.83;73.48
64908;BME280;51412;52.236;5.188;2022-07-05T02:43:14;102089.53;;;15.80;73.42
64908;BME280;51412;52.236;5.188;2022-07-05T02:45:41;102094.50;;;15.78;73.27
64908;BME280;51412;52.236;5.188;2022-07-05T02:48:07;102091.75;;;15.74;73.66
64908;BME280;51412;52.236;5.188;2022-07-05T02:50:35;102100.94;;;15.73;73.68
64908;BME280;51412;52.236;5.188;2022-07-05T02:53:02;102106.28;;;15.70;73.75
64908;BME280;51412;52.236;5.188;2022-07-05T02:55:28;102106.97;;;15.66;73.61
64908;BME280;51412;52.236;5.188;2022-07-05T02:57:55;102112.31;;;15.63;73.69
64908;BME280;51412;52.236;5.188;2022-07-05T03:00:23;102108.84;;;15.62;74.18
64908;BME280;51412;52.236;5.188;2022-07-05T03:02:49;102112.28;;;15.59;74.35
64908;BME280;51412;52.236;5.188;2022-07-05T03:05:16;102108.84;;;15.59;74.42
64908;BME280;51412;52.236;5.188;2022-07-05T03:07:44;102112.28;;;15.59;74.28
64908;BME280;51412;52.236;5.188;2022-07-05T03:10:10;102113.41;;;15.58;74.09
64908;BME280;51412;52.236;5.188;2022-07-05T03:12:37;102116.09;;;15.58;74.31
64908;BME280;51412;52.236;5.188;2022-07-05T03:15:04;102114.91;;;15.56;74.17
64908;BME280;51412;52.236;5.188;2022-07-05T03:17:31;102121.41;;;15.55;74.26
64908;BME280;51412;52.236;5.188;2022-07-05T03:19:57;102117.22;;;15.57;74.76
64908;BME280;51412;52.236;5.188;2022-07-05T03:22:24;102119.91;;;15.57;74.48
64908;BME280;51412;52.236;5.188;2022-07-05T03:24:52;102113.41;;;15.58;74.31
64908;BME280;51412;52.236;5.188;2022-07-05T03:27:18;102125.34;;;15.64;74.32
64908;BME280;51412;52.236;5.188;2022-07-05T03:29:45;102123.06;;;15.66;74.49
64908;BME280;51412;52.236;5.188;2022-07-05T03:32:11;102124.63;;;15.68;74.54
64908;BME280;51412;52.236;5.188;2022-07-05T03:34:38;102120.81;;;15.69;74.74
64908;BME280;51412;52.236;5.188;2022-07-05T03:37:04;102123.47;;;15.69;74.68
64908;BME280;51412;52.236;5.188;2022-07-05T03:39:31;102125.38;;;15.68;74.77
64908;BME280;51412;52.236;5.188;2022-07-05T03:41:59;102127.72;;;15.70;74.89
64908;BME280;51412;52.236;5.188;2022-07-05T03:44:26;102129.22;;;15.71;75.04
64908;BME280;51412;52.236;5.188;2022-07-05T03:46:52;102131.56;;;15.72;75.01
64908;BME280;51412;52.236;5.188;2022-07-05T03:49:19;102137.69;;;15.73;75.26
64908;BME280;51412;52.236;5.188;2022-07-05T03:51:45;102126.97;;;15.73;75.27
64908;BME280;51412;52.236;5.188;2022-07-05T03:54:12;102140.78;;;15.75;75.40
64908;BME280;51412;52.236;5.188;2022-07-05T03:56:38;102132.38;;;15.76;75.39
64908;BME280;51412;52.236;5.188;2022-07-05T03:59:07;102126.28;;;15.79;75.03
64908;BME280;51412;52.236;5.188;2022-07-05T04:01:33;102134.75;;;15.81;75.45
64908;BME280;51412;52.236;5.188;2022-07-05T04:04:00;102133.25;;;15.84;75.30
64908;BME280;51412;52.236;5.188;2022-07-05T04:06:26;102137.88;;;15.87;75.55
64908;BME280;51412;52.236;5.188;2022-07-05T04:08:53;102136.34;;;15.90;75.69
64908;BME280;51412;52.236;5.188;2022-07-05T04:11:19;102134.09;;;15.92;75.62
64908;BME280;51412;52.236;5.188;2022-07-05T04:13:46;102133.34;;;15.95;75.74
64908;BME280;51412;52.236;5.188;2022-07-05T04:16:14;102128.78;;;15.99;75.39
64908;BME280;51412;52.236;5.188;2022-07-05T04:18:40;102136.47;;;16.00;75.34
64908;BME280;51412;52.236;5.188;2022-07-05T04:21:07;102135.78;;;16.07;75.66
64908;BME280;51412;52.236;5.188;2022-07-05T04:23:33;102146.28;;;16.23;75.29
64908;BME280;51412;52.236;5.188;2022-07-05T04:26:01;102137.56;;;16.37;74.95
64908;BME280;51412;52.236;5.188;2022-07-05T04:28:28;102130.06;;;16.54;74.33
64908;BME280;51412;52.236;5.188;2022-07-05T04:30:55;102137.81;;;16.70;74.00
64908;BME280;51412;52.236;5.188;2022-07-05T04:33:23;102137.94;;;16.84;73.65
64908;BME280;51412;52.236;5.188;2022-07-05T04:35:50;102149.97;;;17.01;73.21
64908;BME280;51412;52.236;5.188;2022-07-05T04:38:16;102138.50;;;17.11;72.88
64908;BME280;51412;52.236;5.188;2022-07-05T04:40:43;102145.09;;;17.25;72.60
64908;BME280;51412;52.236;5.188;2022-07-05T04:43:09;102137.47;;;17.41;71.94
64908;BME280;51412;52.236;5.188;2022-07-05T04:45:36;102135.97;;;17.47;71.47
64908;BME280;51412;52.236;5.188;2022-07-05T04:48:04;102151.00;;;17.59;71.29
64908;BME280;51412;52.236;5.188;2022-07-05T04:50:32;102134.88;;;17.59;71.28
64908;BME280;51412;52.236;5.188;2022-07-05T04:52:58;102145.66;;;17.70;70.77
64908;BME280;51412;52.236;5.188;2022-07-05T04:55:25;102148.38;;;17.81;70.63
64908;BME280;51412;52.236;5.188;2022-07-05T04:57:51;102140.72;;;17.87;70.56
64908;BME280;51412;52.236;5.188;2022-07-05T05:00:18;102148.06;;;17.97;70.29
64908;BME280;51412;52.236;5.188;2022-07-05T05:02:44;102142.31;;;18.09;69.94
64908;BME280;51412;52.236;5.188;2022-07-05T05:05:11;102148.09;;;18.26;69.65
64908;BME280;51412;52.236;5.188;2022-07-05T05:07:42;102148.47;;;18.39;69.27
64908;BME280;51412;52.236;5.188;2022-07-05T05:10:09;102148.47;;;18.49;68.94
64908;BME280;51412;52.236;5.188;2022-07-05T05:12:36;102152.72;;;18.47;68.96
64908;BME280;51412;52.236;5.188;2022-07-05T05:15:03;102151.94;;;18.43;69.07
64908;BME280;51412;52.236;5.188;2022-07-05T05:17:38;102144.25;;;18.34;69.62
64908;BME280;51412;52.236;5.188;2022-07-05T05:20:07;102156.19;;;18.29;70.34
64908;BME280;51412;52.236;5.188;2022-07-05T05:22:36;102152.72;;;18.25;70.69
64908;BME280;51412;52.236;5.188;2022-07-05T05:25:04;102151.56;;;18.30;70.98
64908;BME280;51412;52.236;5.188;2022-07-05T05:27:31;102156.56;;;18.35;71.12
64908;BME280;51412;52.236;5.188;2022-07-05T05:29:58;102160.03;;;18.35;71.18
64908;BME280;51412;52.236;5.188;2022-07-05T05:32:24;102151.94;;;18.35;71.28
64908;BME280;51412;52.236;5.188;2022-07-05T05:34:51;102157.72;;;18.41;71.61
64908;BME280;51412;52.236;5.188;2022-07-05T05:37:18;102156.19;;;18.51;71.19
64908;BME280;51412;52.236;5.188;2022-07-05T05:39:44;102167.72;;;18.62;70.96
64908;BME280;51412;52.236;5.188;2022-07-05T05:42:12;102165.78;;;18.70;70.89
64908;BME280;51412;52.236;5.188;2022-07-05T05:44:39;102160.75;;;18.83;70.50
64908;BME280;51412;52.236;5.188;2022-07-05T05:47:05;102169.25;;;18.96;69.66
64908;BME280;51412;52.236;5.188;2022-07-05T05:49:32;102158.06;;;19.01;69.21
64908;BME280;51412;52.236;5.188;2022-07-05T05:51:59;102164.59;;;19.11;68.66
64908;BME280;51412;52.236;5.188;2022-07-05T05:54:26;102173.03;;;19.16;68.53
64908;BME280;51412;52.236;5.188;2022-07-05T05:56:53;102173.81;;;19.24;67.96
64908;BME280;51412;52.236;5.188;2022-07-05T05:59:20;102173.38;;;19.29;67.45
64908;BME280;51412;52.236;5.188;2022-07-05T06:01:47;102164.88;;;19.38;67.45
64908;BME280;51412;52.236;5.188;2022-07-05T06:04:13;102169.47;;;19.48;67.20
64908;BME280;51412;52.236;5.188;2022-07-05T06:06:40;102171.34;;;19.59;67.64
64908;BME280;51412;52.236;5.188;2022-07-05T06:09:06;102175.16;;;19.68;67.05
64908;BME280;51412;52.236;5.188;2022-07-05T06:11:33;102175.13;;;19.76;66.45
64908;BME280;51412;52.236;5.188;2022-07-05T06:13:59;102178.19;;;19.85;66.12
64908;BME280;51412;52.236;5.188;2022-07-05T06:16:27;102180.47;;;19.90;65.97
64908;BME280;51412;52.236;5.188;2022-07-05T06:18:54;102181.63;;;19.89;65.09
64908;BME280;51412;52.236;5.188;2022-07-05T06:21:20;102185.09;;;19.93;65.28
64908;BME280;51412;52.236;5.188;2022-07-05T06:23:47;102191.22;;;19.97;65.22
64908;BME280;51412;52.236;5.188;2022-07-05T06:26:13;102192.72;;;20.02;65.00
64908;BME280;51412;52.236;5.188;2022-07-05T06:28:40;102201.16;;;20.08;64.48
64908;BME280;51412;52.236;5.188;2022-07-05T06:31:06;102192.31;;;20.11;64.03
64908;BME280;51412;52.236;5.188;2022-07-05T06:33:34;102198.03;;;20.16;62.60
64908;BME280;51412;52.236;5.188;2022-07-05T06:36:01;102193.03;;;20.15;62.20
64908;BME280;51412;52.236;5.188;2022-07-05T06:38:27;102199.97;;;20.16;62.49
64908;BME280;51412;52.236;5.188;2022-07-05T06:40:54;102201.16;;;20.15;62.41
64908;BME280;51412;52.236;5.188;2022-07-05T06:43:22;102204.25;;;20.13;61.99
64908;BME280;51412;52.236;5.188;2022-07-05T06:45:48;102201.56;;;20.10;61.25
64908;BME280;51412;52.236;5.188;2022-07-05T06:48:15;102204.66;;;20.08;61.08
64908;BME280;51412;52.236;5.188;2022-07-05T06:50:44;102210.00;;;20.12;61.54
64908;BME280;51412;52.236;5.188;2022-07-05T06:53:11;102213.47;;;20.16;61.92
64908;BME280;51412;52.236;5.188;2022-07-05T06:55:38;102215.38;;;20.19;61.67
64908;BME280;51412;52.236;5.188;2022-07-05T06:58:09;102215.34;;;20.23;61.67
64908;BME280;51412;52.236;5.188;2022-07-05T07:00:36;102216.06;;;20.30;61.92
64908;BME280;51412;52.236;5.188;2022-07-05T07:03:03;102216.75;;;20.42;61.02
64908;BME280;51412;52.236;5.188;2022-07-05T07:05:29;102214.00;;;20.49;60.22
64908;BME280;51412;52.236;5.188;2022-07-05T07:07:57;102212.47;;;20.48;59.74
64908;BME280;51412;52.236;5.188;2022-07-05T07:10:41;102227.03;;;20.61;60.47
64908;BME280;51412;52.236;5.188;2022-07-05T07:13:08;102229.94;;;20.85;59.90
64908;BME280;51412;52.236;5.188;2022-07-05T07:15:34;102223.97;;;21.05;59.19
64908;BME280;51412;52.236;5.188;2022-07-05T07:18:03;102214.50;;;21.24;58.39
64908;BME280;51412;52.236;5.188;2022-07-05T07:20:30;102216.66;;;21.40;57.32
64908;BME280;51412;52.236;5.188;2022-07-05T07:22:58;102216.94;;;21.49;57.07
64908;BME280;51412;52.236;5.188;2022-07-05T07:25:24;102220.75;;;21.55;56.14
64908;BME280;51412;52.236;5.188;2022-07-05T07:27:53;102224.97;;;21.56;55.76
64908;BME280;51412;52.236;5.188;2022-07-05T07:30:21;102225.06;;;21.49;56.08
64908;BME280;51412;52.236;5.188;2022-07-05T07:32:49;102223.19;;;21.42;55.69
64908;BME280;51412;52.236;5.188;2022-07-05T07:35:15;102227.09;;;21.37;56.38
64908;BME280;51412;52.236;5.188;2022-07-05T07:37:42;102223.97;;;21.39;56.73
64908;BME280;51412;52.236;5.188;2022-07-05T07:40:11;102230.94;;;21.40;56.34
64908;BME280;51412;52.236;5.188;2022-07-05T07:42:38;102228.16;;;21.47;56.53
64908;BME280;51412;52.236;5.188;2022-07-05T07:45:05;102241.94;;;21.60;55.58
64908;BME280;51412;52.236;5.188;2022-07-05T07:47:33;102227.31;;;21.54;54.78
64908;BME280;51412;52.236;5.188;2022-07-05T07:50:00;102231.22;;;21.53;55.04
64908;BME280;51412;52.236;5.188;2022-07-05T07:52:27;102232.34;;;21.52;54.65
64908;BME280;51412;52.236;5.188;2022-07-05T07:54:55;102230.81;;;21.51;54.17
64908;BME280;51412;52.236;5.188;2022-07-05T07:57:23;102233.16;;;21.49;54.49
64908;BME280;51412;52.236;5.188;2022-07-05T07:59:50;102231.25;;;21.46;53.79
64908;BME280;51412;52.236;5.188;2022-07-05T08:02:16;102229.00;;;21.41;53.81
64908;BME280;51412;52.236;5.188;2022-07-05T08:04:46;102240.25;;;21.35;54.07
64908;BME280;51412;52.236;5.188;2022-07-05T08:07:12;102234.84;;;21.35;53.41
64908;BME280;51412;52.236;5.188;2022-07-05T08:09:39;102238.00;;;21.30;54.39
64908;BME280;51412;52.236;5.188;2022-07-05T08:12:07;102235.94;;;21.42;54.42
64908;BME280;51412;52.236;5.188;2022-07-05T08:14:35;102236.63;;;21.53;53.68
64908;BME280;51412;52.236;5.188;2022-07-05T08:17:01;102251.16;;;21.66;53.00
64908;BME280;51412;52.236;5.188;2022-07-05T08:19:28;102239.13;;;21.67;52.68
64908;BME280;51412;52.236;5.188;2022-07-05T08:22:12;102236.66;;;21.80;53.16
64908;BME280;51412;52.236;5.188;2022-07-05T08:24:39;102238.84;;;21.89;52.43
64908;BME280;51412;52.236;5.188;2022-07-05T08:27:06;102241.03;;;22.01;52.60
64908;BME280;51412;52.236;5.188;2022-07-05T08:29:33;102241.78;;;22.02;52.21
64908;BME280;51412;52.236;5.188;2022-07-05T08:32:02;102251.94;;;21.94;50.46
64908;BME280;51412;52.236;5.188;2022-07-05T08:34:28;102247.47;;;21.84;51.96
64908;BME280;51412;52.236;5.188;2022-07-05T08:36:55;102245.53;;;21.81;51.50
64908;BME280;51412;52.236;5.188;2022-07-05T08:39:21;102234.38;;;21.79;50.93
64908;BME280;51412;52.236;5.188;2022-07-05T08:41:49;102245.06;;;21.90;50.27
64908;BME280;51412;52.236;5.188;2022-07-05T08:44:18;102239.94;;;21.95;50.00
64908;BME280;51412;52.236;5.188;2022-07-05T08:46:47;102239.09;;;22.02;49.91
64908;BME280;51412;52.236;5.188;2022-07-05T08:49:20;102239.28;;;22.15;47.59
64908;BME280;51412;52.236;5.188;2022-07-05T08:51:48;102235.94;;;22.34;48.94
64908;BME280;51412;52.236;5.188;2022-07-05T08:54:16;102233.34;;;22.51;48.54
64908;BME280;51412;52.236;5.188;2022-07-05T08:56:43;102245.56;;;22.63;48.77
64908;BME280;51412;52.236;5.188;2022-07-05T08:59:10;102239.13;;;22.77;48.61
64908;BME280;51412;52.236;5.188;2022-07-05T09:01:38;102240.47;;;22.88;48.60
64908;BME280;51412;52.236;5.188;2022-07-05T09:04:07;102239.66;;;23.12;47.75
64908;BME280;51412;52.236;5.188;2022-07-05T09:06:39;102244.09;;;23.26;45.59
64908;BME280;51412;52.236;5.188;2022-07-05T09:09:06;102244.31;;;23.35;46.39
64908;BME280;51412;52.236;5.188;2022-07-05T09:11:36;102254.09;;;23.49;47.10
64908;BME280;51412;52.236;5.188;2022-07-05T09:14:04;102248.59;;;23.52;46.17
64908;BME280;51412;52.236;5.188;2022-07-05T09:16:32;102241.78;;;23.44;45.53
64908;BME280;51412;52.236;5.188;2022-07-05T09:19:05;102251.13;;;23.43;46.58
64908;BME280;51412;52.236;5.188;2022-07-05T09:21:32;102257.09;;;23.54;46.39
64908;BME280;51412;52.236;5.188;2022-07-05T09:24:01;102258.13;;;23.61;45.85
64908;BME280;51412;52.236;5.188;2022-07-05T09:26:32;102264.13;;;23.52;45.40
64908;BME280;51412;52.236;5.188;2022-07-05T09:28:59;102258.84;;;23.45;46.21
64908;BME280;51412;52.236;5.188;2022-07-05T09:31:27;102246.94;;;23.38;46.09
64908;BME280;51412;52.236;5.188;2022-07-05T09:33:58;102262.16;;;23.32;46.18
64908;BME280;51412;52.236;5.188;2022-07-05T09:36:46;102254.88;;;23.29;46.49
64908;BME280;51412;52.236;5.188;2022-07-05T09:39:15;102248.88;;;23.38;46.57
64908;BME280;51412;52.236;5.188;2022-07-05T09:41:41;102270.38;;;23.49;45.90
64908;BME280;51412;52.236;5.188;2022-07-05T09:44:08;102256.19;;;23.61;45.92
64908;BME280;51412;52.236;5.188;2022-07-05T09:46:34;102266.31;;;23.77;45.98
64908;BME280;51412;52.236;5.188;2022-07-05T09:49:01;102260.63;;;23.92;44.75
64908;BME280;51412;52.236;5.188;2022-07-05T09:51:28;102263.09;;;24.02;44.26
64908;BME280;51412;52.236;5.188;2022-07-05T09:53:56;102270.22;;;23.96;43.96
64908;BME280;51412;52.236;5.188;2022-07-05T09:56:25;102267.78;;;23.82;44.15
64908;BME280;51412;52.236;5.188;2022-07-05T09:58:54;102273.91;;;23.86;45.27
64908;BME280;51412;52.236;5.188;2022-07-05T10:01:25;102273.28;;;23.98;43.99
64908;BME280;51412;52.236;5.188;2022-07-05T10:03:52;102266.69;;;24.16;43.49
64908;BME280;51412;52.236;5.188;2022-07-05T10:06:19;102262.03;;;24.33;43.48
64908;BME280;51412;52.236;5.188;2022-07-05T10:08:48;102267.56;;;24.46;43.29
64908;BME280;51412;52.236;5.188;2022-07-05T10:11:16;102270.63;;;24.48;42.24
64908;BME280;51412;52.236;5.188;2022-07-05T10:13:45;102268.31;;;24.46;42.37
64908;BME280;51412;52.236;5.188;2022-07-05T10:16:14;102274.16;;;24.28;42.80
64908;BME280;51412;52.236;5.188;2022-07-05T10:18:41;102267.31;;;24.24;43.05
64908;BME280;51412;52.236;5.188;2022-07-05T10:21:12;102257.69;;;24.35;44.90
64908;BME280;51412;52.236;5.188;2022-07-05T10:23:42;102272.91;;;24.49;44.63
64908;BME280;51412;52.236;5.188;2022-07-05T10:26:10;102269.09;;;24.47;43.94
64908;BME280;51412;52.236;5.188;2022-07-05T10:28:39;102277.91;;;24.34;44.86
64908;BME280;51412;52.236;5.188;2022-07-05T10:31:08;102273.41;;;24.11;44.28
64908;BME280;51412;52.236;5.188;2022-07-05T10:33:35;102274.16;;;24.12;44.31
64908;BME280;51412;52.236;5.188;2022-07-05T10:36:03;102269.34;;;24.19;44.10
64908;BME280;51412;52.236;5.188;2022-07-05T10:38:35;102260.84;;;24.34;43.87
64908;BME280;51412;52.236;5.188;2022-07-05T10:41:03;102267.06;;;24.34;41.59
64908;BME280;51412;52.236;5.188;2022-07-05T10:43:31;102276.56;;;24.43;41.37
64908;BME280;51412;52.236;5.188;2022-07-05T10:45:57;102271.06;;;24.63;43.03
64908;BME280;51412;52.236;5.188;2022-07-05T10:48:27;102267.53;;;24.79;41.95
64908;BME280;51412;52.236;5.188;2022-07-05T10:50:55;102278.53;;;24.75;42.30
64908;BME280;51412;52.236;5.188;2022-07-05T10:53:23;102286.94;;;24.64;43.22
64908;BME280;51412;52.236;5.188;2022-07-05T10:55:52;102275.13;;;24.54;44.07
64908;BME280;51412;52.236;5.188;2022-07-05T10:58:27;102274.16;;;24.61;43.59
64908;BME280;51412;52.236;5.188;2022-07-05T11:01:31;102282.56;;;24.50;41.11
64908;BME280;51412;52.236;5.188;2022-07-05T11:04:21;102290.81;;;24.30;44.38
64908;BME280;51412;52.236;5.188;2022-07-05T11:06:51;102291.69;;;24.07;43.43
64908;BME280;51412;52.236;5.188;2022-07-05T11:09:19;102287.66;;;24.15;44.17
64908;BME280;51412;52.236;5.188;2022-07-05T11:11:46;102288.75;;;24.18;45.02
64908;BME280;51412;52.236;5.188;2022-07-05T11:14:31;102299.25;;;23.99;44.53
64908;BME280;51412;52.236;5.188;2022-07-05T11:17:20;102297.16;;;23.87;43.98
64908;BME280;51412;52.236;5.188;2022-07-05T11:20:11;102299.06;;;23.90;45.64
64908;BME280;51412;52.236;5.188;2022-07-05T11:22:40;102293.91;;;24.12;44.77
64908;BME280;51412;52.236;5.188;2022-07-05T11:25:09;102293.19;;;24.28;43.68
64908;BME280;51412;52.236;5.188;2022-07-05T11:28:00;102284.03;;;24.38;44.10
64908;BME280;51412;52.236;5.188;2022-07-05T11:30:44;102300.66;;;24.57;43.24
64908;BME280;51412;52.236;5.188;2022-07-05T11:33:34;102295.78;;;24.68;42.97
64908;BME280;51412;52.236;5.188;2022-07-05T11:36:04;102286.19;;;24.80;43.94
64908;BME280;51412;52.236;5.188;2022-07-05T11:38:33;102296.28;;;24.80;43.49
64908;BME280;51412;52.236;5.188;2022-07-05T11:41:12;102293.03;;;24.85;43.25
64908;BME280;51412;52.236;5.188;2022-07-05T11:43:40;102288.63;;;24.91;42.09
64908;BME280;51412;52.236;5.188;2022-07-05T11:46:07;102299.66;;;24.84;41.41
64908;BME280;51412;52.236;5.188;2022-07-05T11:48:34;102294.72;;;24.79;41.51
64908;BME280;51412;52.236;5.188;2022-07-05T11:51:13;102302.03;;;24.49;40.70
64908;BME280;51412;52.236;5.188;2022-07-05T11:53:40;102289.91;;;24.53;40.95
64908;BME280;51412;52.236;5.188;2022-07-05T11:56:09;102297.63;;;24.71;41.17
64908;BME280;51412;52.236;5.188;2022-07-05T11:58:35;102298.03;;;24.86;40.48
64908;BME280;51412;52.236;5.188;2022-07-05T12:01:02;102293.78;;;24.85;40.02
64908;BME280;51412;52.236;5.188;2022-07-05T12:03:31;102296.38;;;24.76;40.06
64908;BME280;51412;52.236;5.188;2022-07-05T12:06:10;102292.03;;;24.62;39.41
64908;BME280;51412;52.236;5.188;2022-07-05T12:08:39;102297.53;;;24.59;39.04
64908;BME280;51412;52.236;5.188;2022-07-05T12:11:06;102281.06;;;24.49;39.06
64908;BME280;51412;52.236;5.188;2022-07-05T12:13:53;102306.34;;;24.46;39.65
64908;BME280;51412;52.236;5.188;2022-07-05T12:16:19;102292.63;;;24.53;40.02
64908;BME280;51412;52.236;5.188;2022-07-05T12:18:50;102291.19;;;24.65;40.03
64908;BME280;51412;52.236;5.188;2022-07-05T12:21:17;102293.38;;;24.70;39.96
64908;BME280;51412;52.236;5.188;2022-07-05T12:23:48;102288.97;;;24.60;39.80
64908;BME280;51412;52.236;5.188;2022-07-05T12:26:16;102294.72;;;24.29;39.67
64908;BME280;51412;52.236;5.188;2022-07-05T12:28:43;102303.97;;;24.15;40.06
64908;BME280;51412;52.236;5.188;2022-07-05T12:31:17;102303.56;;;23.97;39.93
64908;BME280;51412;52.236;5.188;2022-07-05T12:34:17;102302.22;;;23.85;39.98
64908;BME280;51412;52.236;5.188;2022-07-05T12:36:46;102300.88;;;23.97;40.12
64908;BME280;51412;52.236;5.188;2022-07-05T12:39:16;102301.28;;;23.95;40.32
64908;BME280;51412;52.236;5.188;2022-07-05T12:41:43;102296.97;;;23.78;40.42
64908;BME280;51412;52.236;5.188;2022-07-05T12:44:10;102293.88;;;23.76;40.24
64908;BME280;51412;52.236;5.188;2022-07-05T12:46:37;102302.19;;;23.68;40.02
64908;BME280;51412;52.236;5.188;2022-07-05T12:49:04;102299.69;;;23.78;39.74
64908;BME280;51412;52.236;5.188;2022-07-05T12:51:32;102297.38;;;23.96;38.96
64908;BME280;51412;52.236;5.188;2022-07-05T12:53:59;102302.09;;;23.92;38.58
64908;BME280;51412;52.236;5.188;2022-07-05T12:56:48;102296.88;;;24.01;38.43